Terminal Aerodrome Forecast
Issued by NWS

Current Version | Previous Version | Text Only | Print | Product List | Glossary Off
Versions: 1 2 3 4 5 6 7 8 9 10 11 12 13 14 15 16 17 18 19

000
FTUS42 KMHX 191215 AAA
TAFISO
TAF AMD
KISO 191215Z 1912/2012 07003KT 1/4SM FG OVC002
     FM191300 08010KT P6SM VCSH SCT020 BKN050
     FM191700 14010KT 4SM -SHRA OVC025
     FM192200 14010KT 3SM SHRA OVC007
     FM200600 20008KT 5SM -SHRA OVC005
      AMD LTD TO CLD VIS AND WIND=

USA.gov is the U.S. government's official web portal to all federal, state and local government web resources and services.